Bowyer, South Carolina
Current Conditions -  °F | °C
As of 2:35 PM on Thursday 27 Nov 2014 (Local Time) from KDYB Reporting Station
Scattered Clouds Scattered Clouds  
Wind Chill: 55°   Ceiling: Unl
Heat Index: 55°   Visibility: 10mi
Dew Point: 32°   Wind: 16mph
Humidity: 41%   Direction: 280°W
Pressure: 30.12"   Gusts: 25mph
Location:  33.3181°N, 80.3899°W
Report Text: KDYB 271935Z AUTO 28014G22KT 10SM SCT055 13/00 A3012 RMK AO1
Loading
Personal Weather Stations






























Interactive Weather Map New forecast layout! Learn more

10-Day Weather Forecast

Advertisements
Track Severe Weather on mobile